Time;durP1;ratioP1;P1;durP2;ratioP2;P2;SDS_P1;SDS_P2;PMS_P1;PMS_P2;Temp;Humidity;BMP_temperature;BMP_pressure;BME280_temperature;BME280_humidity;BME280_pressure;Samples;Min_cycle;Max_cycle;Signal;HPM_P1;HPM_P2
2022/10/05 00:01:33;;;;;;;1.07;0.40;;;19.40;99.90;;;19.53;52.10;101506.13;4907860;28;97864;-48
2022/10/05 00:04:22;;;;;;;0.40;0.40;;;19.40;99.90;;;19.50;51.98;101494.72;4905409;28;99385;-48
2022/10/05 00:07:04;;;;;;;0.20;0.10;;;19.40;99.90;;;19.47;52.17;101503.78;4904776;28;97738;-49
2022/10/05 00:09:32;;;;;;;0.27;0.20;;;19.30;99.90;;;19.47;52.19;101489.53;4908392;28;99518;-45
2022/10/05 00:11:58;;;;;;;0.27;0.23;;;19.30;99.90;;;19.40;51.55;101490.88;4905852;28;98538;-47
2022/10/05 00:14:32;;;;;;;0.50;0.43;;;19.20;99.90;;;19.37;52.39;101483.00;4905086;28;107097;-47
2022/10/05 00:16:57;;;;;;;0.37;0.30;;;19.10;99.90;;;19.38;52.36;101484.72;4904492;28;98829;-48
2022/10/05 00:19:38;;;;;;;0.57;0.30;;;19.20;99.90;;;19.37;51.85;101483.00;4923807;28;96951;-48
2022/10/05 00:22:16;;;;;;;0.73;0.40;;;19.20;99.90;;;19.36;52.77;101486.63;4913905;28;97681;-46
2022/10/05 00:24:43;;;;;;;0.20;0.20;;;19.10;99.90;;;19.32;52.48;101481.47;4920114;28;97607;-48
2022/10/05 00:27:35;;;;;;;0.43;0.30;;;19.10;99.90;;;19.32;52.57;101472.59;4922439;28;98889;-49
2022/10/05 00:30:15;;;;;;;0.33;0.33;;;19.10;99.90;;;19.29;52.47;101470.97;4921651;28;97359;-50
2022/10/05 00:32:41;;;;;;;0.93;0.40;;;19.00;99.90;;;19.26;51.11;101475.66;4922918;28;97408;-49
2022/10/05 00:35:09;;;;;;;0.60;0.13;;;19.00;99.90;;;19.22;52.92;101474.06;4919584;28;97189;-50
2022/10/05 00:37:34;;;;;;;0.20;0.20;;;18.90;99.90;;;19.25;53.09;101479.28;4929284;28;97401;-49
2022/10/05 00:40:01;;;;;;;0.43;0.27;;;19.00;99.90;;;19.24;52.71;101475.75;4925526;28;115632;-51
2022/10/05 00:42:51;;;;;;;1.17;0.60;;;19.00;99.90;;;19.23;52.78;101468.63;4928292;28;97414;-51
2022/10/05 00:45:37;;;;;;;0.30;0.27;;;19.00;99.90;;;19.24;53.01;101467.72;4927665;28;96851;-48
2022/10/05 00:48:32;;;;;;;0.57;0.30;;;19.00;99.90;;;19.27;52.82;101462.19;4923278;28;96878;-52
2022/10/05 00:51:01;;;;;;;0.70;0.53;;;19.10;99.90;;;19.27;52.86;101456.81;4919803;28;97277;-52
2022/10/05 00:54:21;;;;;;;0.33;0.30;;;19.10;99.90;;;19.32;52.60;101461.91;4929780;28;97215;-52
2022/10/05 00:57:21;;;;;;;0.40;0.30;;;19.20;99.90;;;19.34;52.36;101473.34;4926582;28;97328;-52
2022/10/05 01:00:08;;;;;;;0.10;0.10;;;19.20;99.90;;;19.37;51.97;101472.31;4919481;28;97702;-49
2022/10/05 01:02:47;;;;;;;0.37;0.30;;;19.30;99.90;;;19.38;52.33;101471.34;4921559;28;97465;-47
2022/10/05 01:05:54;;;;;;;0.50;0.40;;;19.30;99.90;;;19.39;51.97;101471.28;4919702;28;97210;-50
2022/10/05 01:08:47;;;;;;;0.97;0.37;;;19.30;99.90;;;19.43;52.46;101466.59;4920910;28;97077;-50
2022/10/05 01:11:48;;;;;;;0.30;0.10;;;19.30;99.90;;;19.43;52.37;101472.81;4921634;28;103935;-50
2022/10/05 01:14:28;;;;;;;0.50;0.40;;;19.40;99.90;;;19.40;50.80;101466.81;4919891;28;100483;-49
2022/10/05 01:17:19;;;;;;;0.67;0.33;;;19.30;99.90;;;19.41;52.25;101469.38;4922134;28;97413;-48
2022/10/05 01:20:28;;;;;;;0.47;0.30;;;19.30;99.90;;;19.44;52.30;101462.97;4932167;28;97575;-48
2022/10/05 01:23:19;;;;;;;0.10;0.10;;;19.40;99.90;;;19.40;52.25;101467.66;4919382;28;97646;-48
2022/10/05 01:26:10;;;;;;;0.97;0.43;;;19.30;99.90;;;19.40;52.41;101475.69;4917476;28;97529;-48
2022/10/05 01:29:10;;;;;;;1.07;0.27;;;19.30;99.90;;;19.43;52.17;101461.25;4935372;28;97562;-49
2022/10/05 01:31:59;;;;;;;0.20;0.20;;;19.30;99.90;;;19.41;52.36;101463.16;4908803;28;98124;-50
2022/10/05 01:35:03;;;;;;;0.40;0.10;;;19.30;99.90;;;19.35;52.46;101461.69;4918614;28;103826;-48
2022/10/05 01:38:10;;;;;;;0.20;0.20;;;19.20;99.90;;;19.32;52.53;101459.22;4916354;28;101854;-50
2022/10/05 01:40:50;;;;;;;0.40;0.30;;;19.20;99.90;;;19.27;52.58;101467.53;4922436;28;97465;-46
2022/10/05 01:43:35;;;;;;;0.50;0.47;;;19.10;99.90;;;19.23;52.31;101465.97;4919421;28;97584;-46
2022/10/05 01:46:43;;;;;;;0.10;0.10;;;19.00;99.90;;;19.26;52.70;101455.09;4918776;28;99362;-47
2022/10/05 01:49:42;;;;;;;0.40;0.30;;;19.10;99.90;;;19.27;52.66;101456.81;4914243;28;99762;-47
2022/10/05 01:52:31;;;;;;;0.30;0.30;;;19.10;99.90;;;19.29;52.25;101449.56;4923086;28;98342;-48
2022/10/05 01:55:23;;;;;;;0.30;0.30;;;19.20;99.90;;;19.31;52.51;101446.81;4924318;28;97439;-47
2022/10/05 01:58:40;;;;;;;0.67;0.50;;;19.20;99.90;;;19.28;52.59;101442.50;4905465;28;98258;-48
2022/10/05 02:01:29;;;;;;;0.60;0.30;;;19.20;99.90;;;19.28;52.65;101436.28;4911471;28;101286;-48
2022/10/05 02:04:41;;;;;;;1.03;0.40;;;19.10;99.90;;;19.25;52.84;101444.50;4917555;28;97587;-47
2022/10/05 02:07:21;;;;;;;1.13;0.60;;;19.10;99.90;;;19.22;52.27;101437.50;4917976;28;98499;-49
2022/10/05 02:10:04;;;;;;;0.27;0.23;;;19.00;99.90;;;19.15;52.92;101436.16;4921794;28;98653;-49
2022/10/05 02:12:36;;;;;;;0.30;0.23;;;18.90;99.90;;;19.18;53.18;101429.75;4921937;28;97206;-49
2022/10/05 02:15:12;;;;;;;0.20;0.20;;;19.00;99.90;;;19.22;52.68;101416.09;4918963;28;99322;-49
2022/10/05 02:17:46;;;;;;;0.20;0.10;;;19.00;99.90;;;19.22;52.96;101418.78;4923256;28;97008;-48
2022/10/05 02:20:19;;;;;;;0.10;0.10;;;19.10;99.90;;;19.26;52.86;101417.66;4932855;28;102152;-49
2022/10/05 02:22:50;;;;;;;1.23;0.53;;;19.10;99.90;;;19.28;52.68;101415.75;4919297;28;96899;-49
2022/10/05 02:25:29;;;;;;;0.50;0.50;;;19.20;99.90;;;19.29;52.69;101417.47;4922378;28;97910;-48
2022/10/05 02:28:19;;;;;;;0.47;0.47;;;19.20;99.90;;;19.31;52.49;101412.88;4915114;28;97560;-47
2022/10/05 02:31:22;;;;;;;0.40;0.40;;;19.20;99.90;;;19.24;52.52;101424.91;4920483;28;97515;-45
2022/10/05 02:33:48;;;;;;;0.70;0.40;;;19.00;99.90;;;19.20;52.46;101418.00;4918147;28;97571;-47
2022/10/05 02:36:23;;;;;;;0.83;0.30;;;19.00;99.90;;;19.18;53.20;101419.91;4921728;28;97368;-52
2022/10/05 02:39:19;;;;;;;0.57;0.40;;;18.90;99.90;;;19.18;53.01;101422.59;4920315;28;97474;-48
2022/10/05 02:42:18;;;;;;;0.53;0.53;;;18.90;99.90;;;19.14;53.13;101421.06;4924814;28;97597;-49
2022/10/05 02:45:15;;;;;;;0.37;0.30;;;18.90;99.90;;;19.15;52.94;101420.09;4921892;28;98562;-45
2022/10/05 02:48:05;;;;;;;6.80;0.40;;;18.90;99.90;;;19.12;52.15;101422.97;4919563;28;97396;-46
2022/10/05 02:50:55;;;;;;;0.50;0.20;;;18.90;99.90;;;19.17;52.43;101426.22;4930814;28;97330;-49
2022/10/05 02:53:49;;;;;;;0.20;0.20;;;18.90;99.90;;;19.18;53.13;101419.91;4921100;28;101470;-50
2022/10/05 02:56:36;;;;;;;0.27;0.20;;;18.90;99.90;;;19.24;53.02;101416.91;4920580;28;101396;-47
2022/10/05 02:59:38;;;;;;;0.13;0.13;;;19.10;99.90;;;19.28;52.52;101421.09;4922459;28;96882;-49
2022/10/05 03:02:28;;;;;;;0.43;0.40;;;19.10;99.90;;;19.28;52.74;101412.22;4898127;28;97561;-46
2022/10/05 03:05:30;;;;;;;0.10;0.10;;;19.10;99.90;;;19.31;52.74;101410.22;4921684;28;97505;-48
2022/10/05 03:08:25;;;;;;;0.10;0.10;;;19.20;99.90;;;19.31;52.36;101410.22;4930073;28;97297;-47
2022/10/05 03:11:44;;;;;;;0.47;0.23;;;19.20;99.90;;;19.29;52.64;101408.59;4932605;28;100837;-45
2022/10/05 03:14:32;;;;;;;0.20;0.20;;;19.20;99.90;;;19.27;51.42;101403.34;4933819;28;98339;-48
2022/10/05 03:17:14;;;;;;;0.20;0.20;;;19.10;99.90;;;19.21;52.16;101402.81;4945082;28;97503;-46
2022/10/05 03:20:14;;;;;;;0.37;0.33;;;19.00;99.90;;;19.20;52.68;101401.97;4950352;28;97533;-48
2022/10/05 03:22:56;;;;;;;0.47;0.30;;;19.00;99.90;;;19.20;52.38;101407.31;4930190;28;97329;-53
2022/10/05 03:25:21;;;;;;;0.20;0.13;;;19.00;99.90;;;19.23;52.65;101406.25;4945567;28;96852;-45
2022/10/05 03:28:19;;;;;;;0.57;0.40;;;19.10;99.90;;;19.32;52.59;101401.22;4930792;28;97335;-48
2022/10/05 03:31:16;;;;;;;0.40;0.30;;;19.20;99.90;;;19.37;50.47;101408.09;4919346;28;99413;-47
2022/10/05 03:33:56;;;;;;;0.37;0.33;;;19.30;99.90;;;19.41;52.30;101393.63;4919460;28;97638;-49
2022/10/05 03:36:31;;;;;;;0.27;0.27;;;19.30;99.90;;;19.42;52.13;101389.97;4923801;28;97659;-48
2022/10/05 03:39:33;;;;;;;0.20;0.20;;;19.40;99.90;;;19.48;51.99;101394.94;4919968;28;97294;-48
2022/10/05 03:42:10;;;;;;;0.63;0.30;;;19.50;99.90;;;19.49;51.92;101396.66;4920280;28;97644;-49
2022/10/05 03:45:03;;;;;;;0.20;0.20;;;19.50;99.90;;;19.48;51.58;101395.81;4923857;28;97268;-48
2022/10/05 03:47:44;;;;;;;0.30;0.10;;;19.50;99.90;;;19.47;52.18;101388.72;4922603;28;97541;-48
2022/10/05 03:50:43;;;;;;;0.70;0.37;;;19.40;99.90;;;19.41;51.65;101389.13;4912349;28;104347;-51
2022/10/05 03:53:20;;;;;;;0.90;0.70;;;19.30;99.90;;;19.36;52.20;101391.19;4922369;28;100166;-46
2022/10/05 03:56:15;;;;;;;0.30;0.30;;;19.20;99.90;;;19.34;52.47;101387.75;4920170;28;97369;-49
2022/10/05 03:58:49;;;;;;;0.60;0.40;;;19.20;99.90;;;19.27;52.17;101387.28;4920290;28;97623;-51
2022/10/05 04:01:29;;;;;;;0.23;0.20;;;19.10;99.90;;;19.21;52.53;101381.44;4915617;28;98442;-50
2022/10/05 04:04:03;;;;;;;0.43;0.40;;;18.90;99.90;;;19.17;52.64;101378.09;4918237;28;98145;-46
2022/10/05 04:06:43;;;;;;;0.47;0.47;;;18.90;99.90;;;19.09;51.84;101380.34;4921249;28;97000;-50
2022/10/05 04:09:36;;;;;;;0.20;0.20;;;18.80;99.90;;;19.17;52.84;101372.72;4903052;28;97659;-50
2022/10/05 04:12:25;;;;;;;0.27;0.20;;;18.90;99.90;;;19.21;52.88;101366.25;4915608;28;98236;-47
2022/10/05 04:15:08;;;;;;;1.50;0.20;;;19.00;99.90;;;19.30;52.72;101370.19;4917350;28;100629;-50
2022/10/05 04:17:43;;;;;;;0.27;0.27;;;19.20;99.90;;;19.36;52.19;101368.94;4903469;28;97924;-49
2022/10/05 04:20:37;;;;;;;0.20;0.20;;;19.30;99.90;;;19.38;50.89;101364.34;4916761;28;97549;-45
2022/10/05 04:23:36;;;;;;;0.50;0.30;;;19.40;99.90;;;19.44;52.24;101361.31;4913570;28;97464;-47
2022/10/05 04:26:10;;;;;;;0.20;0.20;;;19.40;99.90;;;19.43;52.22;101359.59;4931028;28;96881;-47
2022/10/05 04:28:58;;;;;;;0.97;0.60;;;19.40;99.90;;;19.43;52.32;101347.06;4918728;28;98375;-49
2022/10/05 04:31:54;;;;;;;0.93;0.20;;;19.40;99.90;;;19.44;50.90;101361.31;4932555;28;97523;-49
2022/10/05 04:34:47;;;;;;;0.67;0.53;;;19.40;99.90;;;19.46;52.05;101359.41;4916034;28;103700;-50
2022/10/05 04:37:25;;;;;;;0.20;0.20;;;19.40;99.90;;;19.47;51.95;101361.13;4916251;28;103523;-47
2022/10/05 04:40:44;;;;;;;0.67;0.40;;;19.40;99.90;;;19.49;51.88;101353.84;4933948;28;98829;-46
2022/10/05 04:43:28;;;;;;;0.63;0.40;;;19.40;99.90;;;19.42;51.43;101369.44;4917687;28;96795;-47
2022/10/05 04:46:35;;;;;;;0.17;0.10;;;19.40;99.90;;;19.41;52.05;101361.50;4920960;28;97058;-49
2022/10/05 04:49:38;;;;;;;0.27;0.20;;;19.30;99.90;;;19.35;51.35;101372.56;4921117;28;97265;-47
2022/10/05 04:52:23;;;;;;;0.60;0.33;;;19.20;99.90;;;19.33;52.52;101370.84;4922737;28;97345;-48
2022/10/05 04:55:29;;;;;;;0.40;0.30;;;19.20;99.90;;;19.40;52.28;101370.50;4919588;28;98229;-48
2022/10/05 04:58:26;;;;;;;0.20;0.20;;;19.30;99.90;;;19.42;52.42;101368.59;4904811;28;97415;-47
2022/10/05 05:01:33;;;;;;;0.47;0.37;;;19.40;99.90;;;19.48;50.87;101374.41;4911337;28;97475;-47
2022/10/05 05:04:58;;;;;;;2.50;0.20;;;19.50;99.90;;;19.50;52.02;101366.28;4918229;28;97655;-49
2022/10/05 05:07:53;;;;;;;0.53;0.20;;;19.50;99.90;;;19.50;50.68;101366.28;4918882;28;97677;-46
2022/10/05 05:11:07;;;;;;;0.50;0.23;;;19.50;99.90;;;19.50;51.95;101376.97;4898800;28;101890;-46
2022/10/05 05:13:54;;;;;;;0.80;0.23;;;19.50;99.90;;;19.48;52.00;101374.41;4896216;28;103065;-47
2022/10/05 05:16:37;;;;;;;1.03;0.40;;;19.40;99.90;;;19.51;52.10;101374.22;4919190;28;99329;-47
2022/10/05 05:19:34;;;;;;;0.30;0.30;;;19.50;99.90;;;19.53;52.02;101376.81;4933806;28;97254;-48
2022/10/05 05:22:14;;;;;;;0.87;0.20;;;19.50;99.90;;;19.55;50.89;101374.94;4919988;28;98373;-50
2022/10/05 05:25:18;;;;;;;1.23;0.50;;;19.60;99.90;;;19.52;52.21;101359.00;4921168;28;97682;-49
2022/10/05 05:27:59;;;;;;;0.73;0.50;;;19.50;99.90;;;19.56;51.86;101363.28;4914985;28;97568;-49
2022/10/05 05:30:58;;;;;;;0.10;0.10;;;19.60;99.90;;;19.63;51.88;101361.91;4939102;28;97323;-47
2022/10/05 05:34:02;;;;;;;0.40;0.20;;;19.70;99.90;;;19.66;51.61;101364.41;4919784;28;101622;-49
2022/10/05 05:37:03;;;;;;;0.50;0.27;;;19.70;99.90;;;19.66;51.59;101367.06;4928332;28;100905;-53
2022/10/05 05:39:48;;;;;;;0.50;0.50;;;19.70;99.90;;;19.68;51.78;101365.19;4910292;28;97164;-51
2022/10/05 05:42:40;;;;;;;0.30;0.30;;;19.70;99.90;;;19.69;51.37;101364.22;4932224;28;97211;-52
2022/10/05 05:45:41;;;;;;;0.47;0.20;;;19.70;99.90;;;19.66;51.37;101367.06;4922890;28;101720;-53
2022/10/05 05:48:37;;;;;;;0.40;0.20;;;19.70;99.90;;;19.65;51.53;101365.34;4930652;28;99617;-53
2022/10/05 05:51:12;;;;;;;0.77;0.50;;;19.70;99.90;;;19.64;50.27;101366.31;4921739;28;96740;-50
2022/10/05 05:54:10;;;;;;;0.47;0.27;;;19.60;99.90;;;19.65;51.66;101373.38;4926237;28;97080;-48
2022/10/05 05:56:49;;;;;;;0.50;0.27;;;19.60;99.90;;;19.64;51.22;101369.00;4924478;28;101100;-52
2022/10/05 05:59:19;;;;;;;0.70;0.63;;;19.60;99.90;;;19.56;51.59;101368.63;4921661;28;101134;-49
2022/10/05 06:01:50;;;;;;;0.90;0.30;;;19.50;99.90;;;19.54;50.45;101362.47;4912248;28;97530;-47
2022/10/05 06:04:32;;;;;;;0.50;0.40;;;19.50;99.90;;;19.54;51.94;101362.47;4930949;28;98867;-46
2022/10/05 06:07:01;;;;;;;0.27;0.27;;;19.40;99.90;;;19.57;51.93;101373.00;4925181;28;97333;-49
2022/10/05 06:09:39;;;;;;;0.10;0.10;;;19.50;99.90;;;19.57;51.79;101373.00;4922272;28;106640;-46
2022/10/05 06:12:23;;;;;;;0.30;0.27;;;19.50;99.90;;;19.59;51.95;101371.09;4922424;28;97137;-49
2022/10/05 06:14:59;;;;;;;1.17;0.67;;;19.50;99.90;;;19.58;51.10;101374.75;4929417;28;99023;-50
2022/10/05 06:17:42;;;;;;;0.47;0.30;;;19.60;99.90;;;19.61;51.86;101379.88;4935963;28;102986;-50
2022/10/05 06:20:40;;;;;;;0.17;0.10;;;19.60;99.90;;;19.58;51.78;101375.59;4925329;28;99969;-51
2022/10/05 06:24:14;;;;;;;1.20;0.27;;;19.50;99.90;;;19.52;50.58;101380.41;4927918;28;97102;-49
2022/10/05 06:27:13;;;;;;;0.50;0.50;;;19.40;99.90;;;19.55;51.87;101381.16;4851400;28;97215;-46
2022/10/05 06:30:05;;;;;;;0.50;0.30;;;19.50;99.90;;;19.54;51.68;101374.06;4918989;28;102629;-48
2022/10/05 06:32:55;;;;;;;0.80;0.40;;;19.40;99.90;;;19.48;52.10;101378.88;4924216;28;101426;-49
2022/10/05 06:36:04;;;;;;;0.40;0.30;;;19.40;99.90;;;19.48;52.12;101379.75;4915701;28;97269;-50
2022/10/05 06:39:01;;;;;;;0.30;0.30;;;19.40;99.90;;;19.45;52.29;101374.59;4921605;28;97086;-50
2022/10/05 06:41:58;;;;;;;0.60;0.40;;;19.30;99.90;;;19.46;52.25;101373.63;4926475;28;101581;-51
2022/10/05 06:44:26;;;;;;;0.40;0.40;;;19.40;99.90;;;19.51;52.27;101378.69;4927089;28;99730;-48
2022/10/05 06:47:20;;;;;;;0.23;0.20;;;19.40;99.90;;;19.50;50.77;101374.31;4922927;28;97367;-46
2022/10/05 06:50:06;;;;;;;0.40;0.40;;;19.50;99.90;;;19.47;51.52;101370.00;4928344;28;99147;-47
2022/10/05 06:53:04;;;;;;;0.87;0.53;;;19.40;99.90;;;19.46;51.85;101370.09;4926701;28;98606;-49
2022/10/05 06:55:55;;;;;;;0.40;0.30;;;19.40;99.90;;;19.49;52.10;101375.25;4904013;28;104531;-45
2022/10/05 06:58:25;;;;;;;0.23;0.17;;;19.40;99.90;;;19.44;51.48;101372.00;4917265;28;97395;-47
2022/10/05 07:01:23;;;;;;;1.37;0.50;;;19.40;99.90;;;19.40;50.90;101367.81;4908994;28;97599;-50
2022/10/05 07:04:37;;;;;;;0.30;0.30;;;19.30;99.90;;;19.41;52.42;101373.06;4922242;28;97593;-49
2022/10/05 07:07:14;;;;;;;0.17;0.17;;;19.30;99.90;;;19.42;51.84;101373.94;4917892;28;98702;-51
2022/10/05 07:09:53;;;;;;;0.33;0.30;;;19.30;99.90;;;19.46;52.42;101370.09;4925494;28;96777;-54
2022/10/05 07:12:42;;;;;;;0.27;0.27;;;19.30;99.90;;;19.50;52.32;101359.09;4919655;28;97123;-48
2022/10/05 07:15:52;;;;;;;0.70;0.50;;;19.40;99.90;;;19.50;51.84;101360.91;4926592;28;103125;-48
2022/10/05 07:19:04;;;;;;;0.47;0.47;;;19.40;99.90;;;19.47;52.19;101367.31;4916110;28;101799;-52
2022/10/05 07:21:55;;;;;;;0.13;0.13;;;19.40;99.90;;;19.38;52.08;101372.38;4928188;28;97228;-51
2022/10/05 07:24:34;;;;;;;0.50;0.40;;;19.20;99.90;;;19.33;52.77;101370.84;4929715;28;96962;-50
2022/10/05 07:27:20;;;;;;;1.00;0.50;;;19.10;99.90;;;19.35;52.71;101367.22;4916369;28;100517;-48
2022/10/05 07:30:05;;;;;;;0.87;0.53;;;19.20;99.90;;;19.30;52.90;101368.38;4899912;28;97491;-46
2022/10/05 07:32:58;;;;;;;0.47;0.40;;;19.10;99.90;;;19.28;52.91;101372.97;4890754;28;98732;-48
2022/10/05 07:38:55;;;;;;;0.70;0.47;;;19.20;99.90;;;19.42;52.37;101373.94;4904477;28;100427;-46
2022/10/05 07:41:42;;;;;;;2.07;0.90;;;19.40;99.90;;;19.45;52.58;101373.72;4896288;28;101951;-46
2022/10/05 07:44:19;;;;;;;0.10;0.10;;;19.40;99.90;;;19.46;52.43;101370.09;4910023;28;97418;-47
2022/10/05 07:46:54;;;;;;;0.73;0.60;;;19.40;99.90;;;19.43;52.08;101375.66;4908890;28;98378;-47
2022/10/05 07:49:39;;;;;;;0.70;0.47;;;19.30;99.90;;;19.38;52.47;101377.72;4913836;28;97444;-50
2022/10/05 07:52:20;;;;;;;1.33;1.13;;;19.30;99.90;;;19.27;53.13;101373.06;4910795;28;98019;-47
2022/10/05 07:55:11;;;;;;;0.50;0.50;;;19.00;99.90;;;19.22;52.89;101378.66;4915201;28;97667;-46
2022/10/05 07:57:49;;;;;;;0.57;0.57;;;19.00;99.90;;;19.14;53.13;101385.44;4922692;28;96905;-48
2022/10/05 08:00:19;;;;;;;1.07;0.60;;;18.80;99.90;;;19.19;53.14;101383.34;4920397;28;101894;-47
2022/10/05 08:02:57;;;;;;;1.03;0.60;;;19.00;99.90;;;19.19;53.15;101384.19;4919045;28;99065;-46
2022/10/05 08:05:32;;;;;;;0.73;0.47;;;19.00;99.90;;;19.23;52.76;101379.50;4925160;28;98465;-50
2022/10/05 08:08:06;;;;;;;0.40;0.40;;;19.10;99.90;;;19.25;53.01;101389.19;4919300;28;97493;-49
2022/10/05 08:10:57;;;;;;;0.53;0.43;;;19.10;99.90;;;19.29;52.45;101385.38;4925713;28;97503;-47
2022/10/05 08:14:05;;;;;;;0.30;0.30;;;19.10;99.90;;;19.26;52.55;101388.25;4912192;28;101201;-48
2022/10/05 08:16:37;;;;;;;0.43;0.43;;;19.10;99.90;;;19.24;52.88;101386.59;4925560;28;101417;-50
2022/10/05 08:19:16;;;;;;;0.27;0.27;;;19.10;99.90;;;19.27;52.18;101389.09;4909568;28;97561;-49
2022/10/05 08:22:00;;;;;;;0.97;0.77;;;19.20;99.90;;;19.26;52.97;101385.56;4908805;28;99086;-48
2022/10/05 08:24:48;;;;;;;0.40;0.40;;;19.10;99.90;;;19.28;52.94;101389.00;4909223;28;98494;-46
2022/10/05 08:27:55;;;;;;;0.30;0.30;;;19.20;99.90;;;19.31;52.22;101388.81;4912513;28;99697;-51
2022/10/05 08:30:22;;;;;;;0.60;0.43;;;19.20;99.90;;;19.33;52.87;101397.59;4911790;28;97592;-49
2022/10/05 08:33:10;;;;;;;0.20;0.20;;;19.20;99.90;;;19.40;52.68;101391.91;4904339;28;113299;-45
2022/10/05 08:35:42;;;;;;;0.53;0.47;;;19.30;99.90;;;19.40;52.62;101387.41;4900022;28;97519;-49
2022/10/05 08:38:31;;;;;;;0.43;0.40;;;19.40;99.90;;;19.33;53.22;101391.38;4903822;28;97356;-47
2022/10/05 08:41:09;;;;;;;0.63;0.63;;;19.20;99.90;;;19.35;52.71;101384.13;4905410;28;96956;-49
2022/10/05 08:44:02;;;;;;;0.10;0.10;;;19.20;99.90;;;19.35;52.33;101383.28;4911555;28;98966;-47
2022/10/05 08:46:34;;;;;;;0.90;0.70;;;19.20;99.90;;;19.32;52.62;101390.53;4910408;28;100562;-45
2022/10/05 08:49:08;;;;;;;0.30;0.30;;;19.20;99.90;;;19.38;52.41;101383.94;4909623;28;99112;-47
2022/10/05 08:52:09;;;;;;;0.40;0.30;;;19.30;99.90;;;19.41;52.80;101383.78;4911666;28;97335;-48
2022/10/05 08:55:03;;;;;;;1.00;0.47;;;19.30;99.90;;;19.44;52.48;101383.56;4903282;28;101106;-51
2022/10/05 08:57:37;;;;;;;0.27;0.20;;;19.40;99.90;;;19.45;52.51;101381.75;4904460;28;103999;-50
2022/10/05 09:00:18;;;;;;;0.30;0.30;;;19.30;99.90;;;19.48;52.76;101378.88;4904334;28;98268;-47
2022/10/05 09:03:11;;;;;;;0.27;0.27;;;19.40;99.90;;;19.53;52.31;101382.16;4903123;28;97315;-51
2022/10/05 09:06:01;;;;;;;1.13;0.40;;;19.40;99.90;;;19.56;52.29;101371.31;4909890;28;99832;-50
2022/10/05 09:08:35;;;;;;;0.40;0.30;;;19.50;99.90;;;19.52;52.46;101380.41;4898928;28;101391;-45
2022/10/05 09:11:34;;;;;;;0.40;0.23;;;19.50;99.90;;;19.56;52.24;101371.31;4906957;28;97345;-47
2022/10/05 09:14:37;;;;;;;0.23;0.10;;;19.50;99.90;;;19.62;52.48;101362.88;4910167;28;98222;-45
2022/10/05 09:17:24;;;;;;;0.20;0.17;;;19.60;99.90;;;19.64;52.13;101363.63;4910991;28;98873;-50
2022/10/05 09:20:13;;;;;;;0.30;0.20;;;19.70;99.90;;;19.68;52.26;101362.50;4922858;28;98498;-50
2022/10/05 09:22:57;;;;;;;0.90;0.20;;;19.70;99.90;;;19.67;52.24;101360.75;4910639;28;98583;-50
2022/10/05 09:25:38;;;;;;;0.50;0.30;;;19.70;99.90;;;19.74;51.85;101364.78;4908407;28;98679;-48
2022/10/05 09:28:28;;;;;;;0.10;0.10;;;19.80;99.90;;;19.73;51.83;101368.44;4906568;28;99451;-48
2022/10/05 09:31:28;;;;;;;0.30;0.30;;;19.80;99.90;;;19.74;53.17;101366.59;4905595;28;99330;-46
2022/10/05 09:34:38;;;;;;;2.10;0.63;;;19.80;99.90;;;19.70;51.91;101357.91;4906958;28;99521;-47
2022/10/05 09:37:28;;;;;;;0.83;0.40;;;19.70;99.90;;;19.73;52.13;101362.22;4908720;28;99777;-46
2022/10/05 09:40:24;;;;;;;0.53;0.30;;;19.70;99.90;;;19.74;52.10;101355.91;4907083;28;97749;-47
2022/10/05 09:43:25;;;;;;;0.30;0.20;;;19.80;99.90;;;19.79;53.59;101351.09;4900025;28;97287;-52
2022/10/05 09:46:05;;;;;;;0.67;0.60;;;19.80;99.90;;;19.78;53.24;101346.72;4878477;28;98173;-51
2022/10/05 09:48:53;;;;;;;0.40;0.30;;;19.80;99.90;;;19.75;52.83;101339.75;4898641;28;97351;-50
2022/10/05 09:51:52;;;;;;;0.60;0.60;;;19.70;99.90;;;19.65;54.50;101346.63;4898368;28;101643;-52
2022/10/05 09:54:43;;;;;;;0.10;0.10;;;19.60;99.90;;;19.63;52.51;101336.97;4896848;28;101850;-52
2022/10/05 09:57:30;;;;;;;0.47;0.47;;;19.50;99.90;;;19.65;52.76;101333.25;4896064;28;97316;-51
2022/10/05 10:00:26;;;;;;;0.67;0.43;;;19.60;99.90;;;19.66;52.21;101332.28;4899670;28;98229;-52
2022/10/05 10:03:18;;;;;;;0.40;0.40;;;19.60;99.90;;;19.68;53.81;101333.06;4900139;28;101103;-47
2022/10/05 10:06:19;;;;;;;1.43;0.70;;;19.70;99.90;;;19.65;54.29;101327.88;4901037;28;98504;-49
2022/10/05 10:09:12;;;;;;;0.33;0.20;;;19.60;99.90;;;19.64;52.84;101331.53;4900835;28;96779;-50
2022/10/05 10:11:53;;;;;;;0.77;0.50;;;19.60;99.90;;;19.59;53.45;101333.63;4902735;28;99481;-52
2022/10/05 10:15:02;;;;;;;1.17;0.70;;;19.50;99.90;;;19.60;52.43;101330.00;4895365;28;101763;-49
2022/10/05 10:18:14;;;;;;;0.33;0.30;;;19.50;99.90;;;19.65;54.00;101330.56;4895306;28;102268;-52
2022/10/05 10:21:01;;;;;;;0.37;0.37;;;19.70;99.90;;;19.66;52.45;101326.06;4859035;28;97723;-52
2022/10/05 10:23:45;;;;;;;0.90;0.90;;;19.70;99.90;;;19.64;53.83;101326.16;4878768;28;104025;-50
2022/10/05 10:27:04;;;;;;;0.17;0.17;;;19.70;99.90;;;19.63;54.29;101324.44;4898060;28;105278;-48
2022/10/05 10:29:55;;;;;;;0.10;0.10;;;19.70;99.90;;;19.64;53.12;101326.16;4916289;28;102233;-52
2022/10/05 10:32:55;;;;;;;0.80;0.40;;;19.70;99.90;;;19.65;52.69;101332.38;4900424;28;98039;-49
2022/10/05 10:35:30;;;;;;;0.73;0.67;;;19.80;99.90;;;19.68;52.60;101325.03;4907139;28;102778;-51
2022/10/05 10:38:29;;;;;;;0.30;0.30;;;19.80;99.90;;;19.68;52.69;101322.38;4903437;28;98669;-50
2022/10/05 10:41:15;;;;;;;0.80;0.60;;;19.90;99.90;;;19.84;52.34;101312.41;4878933;28;97798;-51
2022/10/05 10:44:02;;;;;;;0.50;0.50;;;20.00;99.90;;;19.91;54.27;101313.72;4897623;28;100356;-51
2022/10/05 10:47:08;;;;;;;0.77;0.40;;;20.00;99.90;;;19.95;51.99;101308.16;4901196;28;97378;-51
2022/10/05 10:50:09;;;;;;;0.53;0.23;;;20.10;99.90;;;19.99;52.31;101301.66;4899926;28;100957;-52
2022/10/05 10:53:04;;;;;;;0.57;0.30;;;20.10;99.90;;;19.88;51.83;101291.63;4897493;28;102451;-51
2022/10/05 10:56:02;;;;;;;0.70;0.30;;;20.10;99.90;;;19.98;52.91;101297.28;4900788;28;97582;-48
2022/10/05 10:58:48;;;;;;;0.80;0.30;;;20.10;99.90;;;20.06;52.69;101305.66;4899890;28;97743;-49
2022/10/05 11:01:59;;;;;;;0.97;0.40;;;20.20;99.90;;;20.16;53.22;101298.75;4900123;28;100230;-47
2022/10/05 11:05:08;;;;;;;0.63;0.50;;;20.30;99.90;;;20.00;51.58;101290.00;4898034;28;104524;-47
2022/10/05 11:07:57;;;;;;;0.30;0.20;;;20.20;99.90;;;20.07;51.92;101280.59;4901855;28;97339;-51
2022/10/05 11:10:46;;;;;;;0.53;0.27;;;20.20;99.90;;;20.09;52.54;101281.34;4894417;28;97217;-50
2022/10/05 11:13:34;;;;;;;0.37;0.10;;;20.20;99.90;;;20.17;55.20;101282.56;4900147;28;102966;-51
2022/10/05 11:16:37;;;;;;;0.63;0.20;;;20.30;99.90;;;20.17;52.47;101265.63;4901038;28;97953;-51
2022/10/05 11:19:31;;;;;;;0.20;0.20;;;20.30;99.90;;;20.18;53.84;101267.34;4905201;28;97325;-51
2022/10/05 11:22:16;;;;;;;0.37;0.20;;;20.30;99.90;;;20.14;52.21;101255.13;4905949;28;97378;-47
2022/10/05 11:25:26;;;;;;;1.00;0.63;;;20.30;99.90;;;20.16;52.41;101254.06;4906196;28;101535;-50
2022/10/05 11:28:12;;;;;;;0.47;0.17;;;20.30;99.90;;;20.13;51.53;101242.72;4903814;28;101388;-48
2022/10/05 11:31:24;;;;;;;0.53;0.40;;;20.30;99.90;;;20.18;53.99;101245.94;4907788;28;97489;-49
2022/10/05 11:34:25;;;;;;;1.47;0.30;;;20.30;99.90;;;20.12;51.25;101235.63;4899601;28;97607;-52
2022/10/05 11:36:57;;;;;;;0.47;0.30;;;20.30;99.90;;;20.08;51.67;101231.41;4879818;28;98598;-48
2022/10/05 11:39:52;;;;;;;0.10;0.10;;;20.20;99.90;;;20.05;51.40;101223.59;4907497;28;98119;-47
2022/10/05 11:43:00;;;;;;;0.37;0.30;;;20.20;99.90;;;20.07;51.60;101219.00;4899655;28;97370;-49
2022/10/05 11:45:58;;;;;;;0.37;0.17;;;20.20;99.90;;;20.08;51.48;101218.88;4904534;28;98867;-45